sensor_id;sensor_type;location;lat;lon;timestamp;P1;durP1;ratioP1;P2;durP2;ratioP2
77298;SDS011;66361;52.034;20.656;2023-06-26T00:02:10;11.23;;;7.57;;
77298;SDS011;66361;52.034;20.656;2023-06-26T00:06:14;11.57;;;7.05;;
77298;SDS011;66361;52.034;20.656;2023-06-26T00:10:18;11.05;;;6.93;;
77298;SDS011;66361;52.034;20.656;2023-06-26T00:14:21;11.88;;;7.45;;
77298;SDS011;66361;52.034;20.656;2023-06-26T00:18:24;10.40;;;6.57;;
77298;SDS011;66361;52.034;20.656;2023-06-26T00:22:27;9.65;;;6.50;;
77298;SDS011;66361;52.034;20.656;2023-06-26T00:26:35;10.70;;;7.03;;
77298;SDS011;66361;52.034;20.656;2023-06-26T00:30:37;11.05;;;7.70;;
77298;SDS011;66361;52.034;20.656;2023-06-26T00:34:41;12.40;;;8.15;;
77298;SDS011;66361;52.034;20.656;2023-06-26T00:38:48;10.73;;;7.55;;
77298;SDS011;66361;52.034;20.656;2023-06-26T00:42:52;12.55;;;7.70;;
77298;SDS011;66361;52.034;20.656;2023-06-26T00:46:58;10.88;;;7.72;;
77298;SDS011;66361;52.034;20.656;2023-06-26T00:51:02;10.57;;;7.47;;
77298;SDS011;66361;52.034;20.656;2023-06-26T00:55:05;10.70;;;6.88;;
77298;SDS011;66361;52.034;20.656;2023-06-26T00:59:09;10.55;;;7.88;;
77298;SDS011;66361;52.034;20.656;2023-06-26T01:03:13;11.77;;;7.90;;
77298;SDS011;66361;52.034;20.656;2023-06-26T01:07:16;9.85;;;6.93;;
77298;SDS011;66361;52.034;20.656;2023-06-26T01:11:24;11.23;;;7.00;;
77298;SDS011;66361;52.034;20.656;2023-06-26T01:15:29;8.70;;;6.90;;
77298;SDS011;66361;52.034;20.656;2023-06-26T01:19:32;10.05;;;7.20;;
77298;SDS011;66361;52.034;20.656;2023-06-26T01:23:37;13.77;;;7.55;;
77298;SDS011;66361;52.034;20.656;2023-06-26T01:27:50;11.15;;;7.43;;
77298;SDS011;66361;52.034;20.656;2023-06-26T01:31:56;14.63;;;7.57;;
77298;SDS011;66361;52.034;20.656;2023-06-26T01:36:01;10.15;;;7.55;;
77298;SDS011;66361;52.034;20.656;2023-06-26T01:40:04;9.40;;;6.25;;
77298;SDS011;66361;52.034;20.656;2023-06-26T01:48:34;10.45;;;7.38;;
77298;SDS011;66361;52.034;20.656;2023-06-26T01:52:43;10.35;;;7.18;;
77298;SDS011;66361;52.034;20.656;2023-06-26T01:56:54;11.88;;;7.35;;
77298;SDS011;66361;52.034;20.656;2023-06-26T02:00:59;10.45;;;7.10;;
77298;SDS011;66361;52.034;20.656;2023-06-26T02:05:04;11.30;;;7.78;;
77298;SDS011;66361;52.034;20.656;2023-06-26T02:09:08;10.65;;;7.60;;
77298;SDS011;66361;52.034;20.656;2023-06-26T02:13:11;11.02;;;8.25;;
77298;SDS011;66361;52.034;20.656;2023-06-26T02:17:15;9.68;;;7.40;;
77298;SDS011;66361;52.034;20.656;2023-06-26T02:21:20;12.45;;;7.63;;
77298;SDS011;66361;52.034;20.656;2023-06-26T02:25:24;10.68;;;6.40;;
77298;SDS011;66361;52.034;20.656;2023-06-26T02:29:27;12.38;;;7.65;;
77298;SDS011;66361;52.034;20.656;2023-06-26T02:33:31;11.20;;;8.68;;
77298;SDS011;66361;52.034;20.656;2023-06-26T02:37:36;13.75;;;8.30;;
77298;SDS011;66361;52.034;20.656;2023-06-26T02:41:39;13.07;;;8.02;;
77298;SDS011;66361;52.034;20.656;2023-06-26T02:45:43;11.45;;;7.28;;
77298;SDS011;66361;52.034;20.656;2023-06-26T02:49:46;11.20;;;6.85;;
77298;SDS011;66361;52.034;20.656;2023-06-26T02:53:51;11.32;;;7.72;;
77298;SDS011;66361;52.034;20.656;2023-06-26T02:57:54;12.35;;;8.13;;
77298;SDS011;66361;52.034;20.656;2023-06-26T03:01:57;10.80;;;7.18;;
77298;SDS011;66361;52.034;20.656;2023-06-26T03:06:00;12.45;;;8.20;;
77298;SDS011;66361;52.034;20.656;2023-06-26T03:10:05;9.75;;;7.22;;
77298;SDS011;66361;52.034;20.656;2023-06-26T03:14:09;10.07;;;7.53;;
77298;SDS011;66361;52.034;20.656;2023-06-26T03:18:12;12.48;;;8.43;;
77298;SDS011;66361;52.034;20.656;2023-06-26T03:22:15;12.02;;;8.02;;
77298;SDS011;66361;52.034;20.656;2023-06-26T03:26:19;13.35;;;8.48;;
77298;SDS011;66361;52.034;20.656;2023-06-26T03:30:29;11.50;;;7.97;;
77298;SDS011;66361;52.034;20.656;2023-06-26T03:34:32;11.52;;;7.68;;
77298;SDS011;66361;52.034;20.656;2023-06-26T03:38:35;11.23;;;8.38;;
77298;SDS011;66361;52.034;20.656;2023-06-26T03:42:40;11.55;;;7.45;;
77298;SDS011;66361;52.034;20.656;2023-06-26T03:46:43;11.63;;;8.18;;
77298;SDS011;66361;52.034;20.656;2023-06-26T03:50:46;12.15;;;8.40;;
77298;SDS011;66361;52.034;20.656;2023-06-26T03:54:49;9.95;;;7.03;;
77298;SDS011;66361;52.034;20.656;2023-06-26T03:58:53;9.82;;;7.78;;
77298;SDS011;66361;52.034;20.656;2023-06-26T04:02:56;12.55;;;8.63;;
77298;SDS011;66361;52.034;20.656;2023-06-26T04:07:00;10.55;;;7.93;;
77298;SDS011;66361;52.034;20.656;2023-06-26T04:11:03;13.75;;;7.55;;
77298;SDS011;66361;52.034;20.656;2023-06-26T04:15:08;12.52;;;8.02;;
77298;SDS011;66361;52.034;20.656;2023-06-26T04:19:12;10.05;;;7.60;;
77298;SDS011;66361;52.034;20.656;2023-06-26T04:23:16;9.70;;;7.47;;
77298;SDS011;66361;52.034;20.656;2023-06-26T04:27:19;10.43;;;7.63;;
77298;SDS011;66361;52.034;20.656;2023-06-26T04:31:23;9.00;;;6.88;;
77298;SDS011;66361;52.034;20.656;2023-06-26T04:35:26;8.55;;;6.63;;
77298;SDS011;66361;52.034;20.656;2023-06-26T04:39:30;8.25;;;6.50;;
77298;SDS011;66361;52.034;20.656;2023-06-26T04:43:33;9.02;;;5.70;;
77298;SDS011;66361;52.034;20.656;2023-06-26T04:47:38;7.47;;;5.57;;
77298;SDS011;66361;52.034;20.656;2023-06-26T04:51:41;9.30;;;6.45;;
77298;SDS011;66361;52.034;20.656;2023-06-26T04:55:44;8.65;;;6.07;;
77298;SDS011;66361;52.034;20.656;2023-06-26T04:59:47;9.15;;;5.72;;
77298;SDS011;66361;52.034;20.656;2023-06-26T05:03:52;8.88;;;6.22;;
77298;SDS011;66361;52.034;20.656;2023-06-26T05:07:55;7.28;;;5.55;;
77298;SDS011;66361;52.034;20.656;2023-06-26T05:11:58;6.78;;;5.95;;
77298;SDS011;66361;52.034;20.656;2023-06-26T05:16:02;7.70;;;6.10;;
77298;SDS011;66361;52.034;20.656;2023-06-26T05:20:07;6.15;;;4.95;;
77298;SDS011;66361;52.034;20.656;2023-06-26T05:24:12;5.45;;;4.70;;
77298;SDS011;66361;52.034;20.656;2023-06-26T05:28:18;6.03;;;5.13;;
77298;SDS011;66361;52.034;20.656;2023-06-26T05:32:21;5.70;;;4.95;;
77298;SDS011;66361;52.034;20.656;2023-06-26T05:36:27;11.40;;;4.70;;
77298;SDS011;66361;52.034;20.656;2023-06-26T05:40:32;6.15;;;5.18;;
77298;SDS011;66361;52.034;20.656;2023-06-26T05:44:36;6.10;;;5.05;;
77298;SDS011;66361;52.034;20.656;2023-06-26T05:48:39;5.72;;;5.00;;
77298;SDS011;66361;52.034;20.656;2023-06-26T05:52:45;5.90;;;5.00;;
77298;SDS011;66361;52.034;20.656;2023-06-26T05:56:49;5.93;;;5.32;;
77298;SDS011;66361;52.034;20.656;2023-06-26T06:00:55;10.07;;;6.95;;
77298;SDS011;66361;52.034;20.656;2023-06-26T06:04:58;7.88;;;6.60;;
77298;SDS011;66361;52.034;20.656;2023-06-26T06:09:03;8.77;;;6.10;;
77298;SDS011;66361;52.034;20.656;2023-06-26T06:13:06;8.50;;;6.43;;
77298;SDS011;66361;52.034;20.656;2023-06-26T06:17:09;8.13;;;6.22;;
77298;SDS011;66361;52.034;20.656;2023-06-26T06:21:12;7.25;;;5.65;;
77298;SDS011;66361;52.034;20.656;2023-06-26T06:25:17;6.13;;;5.53;;
77298;SDS011;66361;52.034;20.656;2023-06-26T06:29:21;5.97;;;5.38;;
77298;SDS011;66361;52.034;20.656;2023-06-26T06:33:24;5.28;;;4.50;;
77298;SDS011;66361;52.034;20.656;2023-06-26T06:37:27;5.82;;;4.55;;
77298;SDS011;66361;52.034;20.656;2023-06-26T06:41:34;4.95;;;4.10;;
77298;SDS011;66361;52.034;20.656;2023-06-26T06:45:37;5.25;;;4.30;;
77298;SDS011;66361;52.034;20.656;2023-06-26T06:49:41;5.57;;;4.07;;
77298;SDS011;66361;52.034;20.656;2023-06-26T06:53:44;4.93;;;4.32;;
77298;SDS011;66361;52.034;20.656;2023-06-26T06:57:48;6.60;;;4.60;;
77298;SDS011;66361;52.034;20.656;2023-06-26T07:01:51;4.28;;;3.88;;
77298;SDS011;66361;52.034;20.656;2023-06-26T07:05:55;4.30;;;3.90;;
77298;SDS011;66361;52.034;20.656;2023-06-26T07:09:59;4.40;;;3.67;;
77298;SDS011;66361;52.034;20.656;2023-06-26T07:14:03;4.15;;;3.75;;
77298;SDS011;66361;52.034;20.656;2023-06-26T07:18:06;5.70;;;4.05;;
77298;SDS011;66361;52.034;20.656;2023-06-26T07:22:09;5.93;;;4.25;;
77298;SDS011;66361;52.034;20.656;2023-06-26T07:26:13;5.05;;;4.38;;
77298;SDS011;66361;52.034;20.656;2023-06-26T07:30:23;4.93;;;4.43;;
77298;SDS011;66361;52.034;20.656;2023-06-26T07:34:26;6.32;;;4.78;;
77298;SDS011;66361;52.034;20.656;2023-06-26T07:38:29;6.30;;;5.30;;
77298;SDS011;66361;52.034;20.656;2023-06-26T07:42:34;4.93;;;4.30;;
77298;SDS011;66361;52.034;20.656;2023-06-26T07:46:39;6.43;;;4.65;;
77298;SDS011;66361;52.034;20.656;2023-06-26T07:50:45;5.95;;;4.25;;
77298;SDS011;66361;52.034;20.656;2023-06-26T07:54:48;5.10;;;4.38;;
77298;SDS011;66361;52.034;20.656;2023-06-26T07:58:55;5.90;;;4.28;;
77298;SDS011;66361;52.034;20.656;2023-06-26T08:03:00;5.30;;;3.88;;
77298;SDS011;66361;52.034;20.656;2023-06-26T08:07:04;4.53;;;3.85;;
77298;SDS011;66361;52.034;20.656;2023-06-26T08:11:10;5.03;;;4.10;;
77298;SDS011;66361;52.034;20.656;2023-06-26T08:15:13;4.60;;;4.10;;
77298;SDS011;66361;52.034;20.656;2023-06-26T08:19:18;4.80;;;3.75;;
77298;SDS011;66361;52.034;20.656;2023-06-26T08:23:23;4.70;;;3.70;;
77298;SDS011;66361;52.034;20.656;2023-06-26T08:27:27;4.95;;;3.55;;
77298;SDS011;66361;52.034;20.656;2023-06-26T08:31:29;4.90;;;3.72;;
77298;SDS011;66361;52.034;20.656;2023-06-26T08:35:37;4.07;;;3.67;;
77298;SDS011;66361;52.034;20.656;2023-06-26T08:39:40;5.15;;;3.67;;
77298;SDS011;66361;52.034;20.656;2023-06-26T08:43:43;4.05;;;3.65;;
77298;SDS011;66361;52.034;20.656;2023-06-26T08:47:46;4.55;;;3.80;;
77298;SDS011;66361;52.034;20.656;2023-06-26T08:51:58;3.50;;;3.20;;
77298;SDS011;66361;52.034;20.656;2023-06-26T08:56:08;5.45;;;3.30;;
77298;SDS011;66361;52.034;20.656;2023-06-26T09:00:15;3.78;;;3.33;;
77298;SDS011;66361;52.034;20.656;2023-06-26T09:04:19;3.90;;;3.50;;
77298;SDS011;66361;52.034;20.656;2023-06-26T09:08:24;3.95;;;3.35;;
77298;SDS011;66361;52.034;20.656;2023-06-26T09:12:27;4.63;;;3.47;;
77298;SDS011;66361;52.034;20.656;2023-06-26T09:16:30;5.22;;;3.58;;
77298;SDS011;66361;52.034;20.656;2023-06-26T09:20:33;4.13;;;3.42;;
77298;SDS011;66361;52.034;20.656;2023-06-26T09:24:38;3.80;;;3.20;;
77298;SDS011;66361;52.034;20.656;2023-06-26T09:28:43;4.97;;;3.50;;
77298;SDS011;66361;52.034;20.656;2023-06-26T09:32:47;6.60;;;3.95;;
77298;SDS011;66361;52.034;20.656;2023-06-26T09:36:53;4.20;;;3.33;;
77298;SDS011;66361;52.034;20.656;2023-06-26T09:40:59;4.72;;;3.55;;
77298;SDS011;66361;52.034;20.656;2023-06-26T09:45:05;4.10;;;3.40;;
77298;SDS011;66361;52.034;20.656;2023-06-26T09:49:09;5.55;;;3.63;;
77298;SDS011;66361;52.034;20.656;2023-06-26T09:53:13;5.85;;;4.03;;
77298;SDS011;66361;52.034;20.656;2023-06-26T09:57:21;5.03;;;3.20;;
77298;SDS011;66361;52.034;20.656;2023-06-26T10:01:24;4.43;;;3.92;;
77298;SDS011;66361;52.034;20.656;2023-06-26T10:05:27;4.18;;;3.50;;
77298;SDS011;66361;52.034;20.656;2023-06-26T10:09:30;4.45;;;3.50;;
77298;SDS011;66361;52.034;20.656;2023-06-26T10:13:37;4.05;;;3.05;;
77298;SDS011;66361;52.034;20.656;2023-06-26T10:17:47;4.65;;;3.47;;
77298;SDS011;66361;52.034;20.656;2023-06-26T10:21:51;5.63;;;4.07;;
77298;SDS011;66361;52.034;20.656;2023-06-26T10:25:55;6.95;;;3.50;;
77298;SDS011;66361;52.034;20.656;2023-06-26T10:30:08;5.78;;;3.60;;
77298;SDS011;66361;52.034;20.656;2023-06-26T10:34:14;4.55;;;3.38;;
77298;SDS011;66361;52.034;20.656;2023-06-26T10:38:17;5.38;;;3.35;;
77298;SDS011;66361;52.034;20.656;2023-06-26T10:42:28;5.20;;;3.13;;
77298;SDS011;66361;52.034;20.656;2023-06-26T10:46:49;6.00;;;3.40;;
77298;SDS011;66361;52.034;20.656;2023-06-26T10:50:54;4.28;;;3.50;;
77298;SDS011;66361;52.034;20.656;2023-06-26T10:54:57;4.30;;;3.33;;
77298;SDS011;66361;52.034;20.656;2023-06-26T10:59:10;4.25;;;3.78;;
77298;SDS011;66361;52.034;20.656;2023-06-26T11:03:24;8.18;;;3.63;;
77298;SDS011;66361;52.034;20.656;2023-06-26T11:07:33;4.68;;;3.50;;
77298;SDS011;66361;52.034;20.656;2023-06-26T11:11:55;5.65;;;3.72;;
77298;SDS011;66361;52.034;20.656;2023-06-26T11:16:06;4.18;;;3.53;;
77298;SDS011;66361;52.034;20.656;2023-06-26T11:20:12;4.43;;;3.80;;
77298;SDS011;66361;52.034;20.656;2023-06-26T11:24:19;4.18;;;3.22;;
77298;SDS011;66361;52.034;20.656;2023-06-26T11:28:22;4.50;;;3.42;;
77298;SDS011;66361;52.034;20.656;2023-06-26T11:32:26;4.47;;;3.80;;
77298;SDS011;66361;52.034;20.656;2023-06-26T11:36:31;4.10;;;3.50;;
77298;SDS011;66361;52.034;20.656;2023-06-26T11:40:38;4.50;;;3.40;;
77298;SDS011;66361;52.034;20.656;2023-06-26T11:44:46;4.30;;;3.30;;
77298;SDS011;66361;52.034;20.656;2023-06-26T11:48:50;5.85;;;3.33;;
77298;SDS011;66361;52.034;20.656;2023-06-26T11:52:55;4.05;;;3.50;;
77298;SDS011;66361;52.034;20.656;2023-06-26T11:56:59;14.65;;;5.47;;
77298;SDS011;66361;52.034;20.656;2023-06-26T12:01:03;4.95;;;3.63;;
77298;SDS011;66361;52.034;20.656;2023-06-26T12:05:07;5.78;;;4.40;;
77298;SDS011;66361;52.034;20.656;2023-06-26T12:09:14;4.60;;;3.75;;
77298;SDS011;66361;52.034;20.656;2023-06-26T12:13:19;5.13;;;3.78;;
77298;SDS011;66361;52.034;20.656;2023-06-26T12:17:23;3.97;;;3.50;;
77298;SDS011;66361;52.034;20.656;2023-06-26T12:21:48;5.13;;;3.80;;
77298;SDS011;66361;52.034;20.656;2023-06-26T12:25:55;4.63;;;3.70;;
77298;SDS011;66361;52.034;20.656;2023-06-26T12:29:58;4.93;;;3.45;;
77298;SDS011;66361;52.034;20.656;2023-06-26T12:34:01;5.07;;;3.90;;
77298;SDS011;66361;52.034;20.656;2023-06-26T12:38:05;4.70;;;3.90;;
77298;SDS011;66361;52.034;20.656;2023-06-26T12:42:14;6.00;;;4.15;;
77298;SDS011;66361;52.034;20.656;2023-06-26T12:46:18;5.65;;;3.85;;
77298;SDS011;66361;52.034;20.656;2023-06-26T12:50:21;4.57;;;3.80;;
77298;SDS011;66361;52.034;20.656;2023-06-26T12:54:24;5.93;;;3.72;;
77298;SDS011;66361;52.034;20.656;2023-06-26T12:58:28;4.82;;;3.63;;
77298;SDS011;66361;52.034;20.656;2023-06-26T13:02:31;6.68;;;3.83;;
77298;SDS011;66361;52.034;20.656;2023-06-26T13:06:35;5.90;;;4.00;;
77298;SDS011;66361;52.034;20.656;2023-06-26T13:10:38;5.22;;;3.70;;
77298;SDS011;66361;52.034;20.656;2023-06-26T13:14:43;4.20;;;3.80;;
77298;SDS011;66361;52.034;20.656;2023-06-26T13:18:49;7.47;;;4.18;;
77298;SDS011;66361;52.034;20.656;2023-06-26T13:22:52;5.05;;;3.90;;
77298;SDS011;66361;52.034;20.656;2023-06-26T13:26:55;5.40;;;3.45;;
77298;SDS011;66361;52.034;20.656;2023-06-26T13:31:00;7.25;;;3.85;;
77298;SDS011;66361;52.034;20.656;2023-06-26T13:35:03;5.18;;;3.70;;
77298;SDS011;66361;52.034;20.656;2023-06-26T13:39:07;6.20;;;4.15;;
77298;SDS011;66361;52.034;20.656;2023-06-26T13:43:14;5.00;;;3.90;;
77298;SDS011;66361;52.034;20.656;2023-06-26T13:47:19;5.70;;;4.10;;
77298;SDS011;66361;52.034;20.656;2023-06-26T13:51:22;5.43;;;3.63;;
77298;SDS011;66361;52.034;20.656;2023-06-26T13:55:26;5.50;;;3.90;;
77298;SDS011;66361;52.034;20.656;2023-06-26T13:59:29;6.38;;;3.83;;
77298;SDS011;66361;52.034;20.656;2023-06-26T14:03:33;5.18;;;3.80;;
77298;SDS011;66361;52.034;20.656;2023-06-26T14:07:36;5.22;;;4.00;;
77298;SDS011;66361;52.034;20.656;2023-06-26T14:11:39;4.53;;;3.90;;
77298;SDS011;66361;52.034;20.656;2023-06-26T14:15:42;4.22;;;3.42;;
77298;SDS011;66361;52.034;20.656;2023-06-26T14:19:47;4.25;;;3.53;;
77298;SDS011;66361;52.034;20.656;2023-06-26T14:23:51;6.35;;;4.07;;
77298;SDS011;66361;52.034;20.656;2023-06-26T14:27:55;3.88;;;3.50;;
77298;SDS011;66361;52.034;20.656;2023-06-26T14:31:58;3.92;;;3.40;;
77298;SDS011;66361;52.034;20.656;2023-06-26T14:36:02;5.72;;;3.63;;
77298;SDS011;66361;52.034;20.656;2023-06-26T14:40:06;5.50;;;3.40;;
77298;SDS011;66361;52.034;20.656;2023-06-26T14:44:10;6.30;;;3.92;;
77298;SDS011;66361;52.034;20.656;2023-06-26T14:48:13;7.15;;;3.70;;
77298;SDS011;66361;52.034;20.656;2023-06-26T14:52:17;5.60;;;3.22;;
77298;SDS011;66361;52.034;20.656;2023-06-26T14:56:20;4.93;;;3.60;;
77298;SDS011;66361;52.034;20.656;2023-06-26T15:00:24;5.95;;;3.20;;
77298;SDS011;66361;52.034;20.656;2023-06-26T15:04:28;5.22;;;3.50;;
77298;SDS011;66361;52.034;20.656;2023-06-26T15:08:32;4.03;;;3.20;;
77298;SDS011;66361;52.034;20.656;2023-06-26T15:12:36;4.70;;;3.75;;
77298;SDS011;66361;52.034;20.656;2023-06-26T15:16:39;3.90;;;3.35;;
77298;SDS011;66361;52.034;20.656;2023-06-26T15:20:44;5.00;;;3.88;;
77298;SDS011;66361;52.034;20.656;2023-06-26T15:24:49;5.68;;;3.47;;
77298;SDS011;66361;52.034;20.656;2023-06-26T15:28:52;6.10;;;3.53;;
77298;SDS011;66361;52.034;20.656;2023-06-26T15:32:55;4.38;;;3.20;;
77298;SDS011;66361;52.034;20.656;2023-06-26T15:36:58;5.72;;;3.25;;
77298;SDS011;66361;52.034;20.656;2023-06-26T15:41:03;4.22;;;3.10;;
77298;SDS011;66361;52.034;20.656;2023-06-26T15:45:06;4.47;;;3.28;;
77298;SDS011;66361;52.034;20.656;2023-06-26T15:49:10;4.10;;;3.00;;
77298;SDS011;66361;52.034;20.656;2023-06-26T15:53:15;4.20;;;3.35;;
77298;SDS011;66361;52.034;20.656;2023-06-26T15:57:21;4.25;;;3.33;;
77298;SDS011;66361;52.034;20.656;2023-06-26T16:01:27;4.63;;;3.40;;
77298;SDS011;66361;52.034;20.656;2023-06-26T16:05:30;6.50;;;3.05;;
77298;SDS011;66361;52.034;20.656;2023-06-26T16:09:33;3.47;;;2.72;;
77298;SDS011;66361;52.034;20.656;2023-06-26T16:13:37;3.92;;;2.95;;
77298;SDS011;66361;52.034;20.656;2023-06-26T16:17:44;4.07;;;3.10;;
77298;SDS011;66361;52.034;20.656;2023-06-26T16:21:47;3.85;;;2.85;;
77298;SDS011;66361;52.034;20.656;2023-06-26T16:25:50;3.35;;;2.70;;
77298;SDS011;66361;52.034;20.656;2023-06-26T16:29:54;4.13;;;3.10;;
77298;SDS011;66361;52.034;20.656;2023-06-26T16:34:01;3.25;;;2.80;;
77298;SDS011;66361;52.034;20.656;2023-06-26T16:38:04;4.65;;;2.92;;
77298;SDS011;66361;52.034;20.656;2023-06-26T16:42:09;4.40;;;3.13;;
77298;SDS011;66361;52.034;20.656;2023-06-26T16:46:15;4.28;;;3.40;;
77298;SDS011;66361;52.034;20.656;2023-06-26T16:50:19;4.32;;;3.00;;
77298;SDS011;66361;52.034;20.656;2023-06-26T16:54:22;3.65;;;3.00;;
77298;SDS011;66361;52.034;20.656;2023-06-26T16:58:26;4.18;;;3.40;;
77298;SDS011;66361;52.034;20.656;2023-06-26T17:02:30;3.80;;;3.20;;
77298;SDS011;66361;52.034;20.656;2023-06-26T17:06:34;4.05;;;3.15;;
77298;SDS011;66361;52.034;20.656;2023-06-26T17:10:40;4.75;;;3.10;;
77298;SDS011;66361;52.034;20.656;2023-06-26T17:14:44;5.82;;;3.28;;
77298;SDS011;66361;52.034;20.656;2023-06-26T17:18:48;5.80;;;3.15;;
77298;SDS011;66361;52.034;20.656;2023-06-26T17:22:52;4.30;;;3.13;;
77298;SDS011;66361;52.034;20.656;2023-06-26T17:27:06;5.53;;;3.30;;
77298;SDS011;66361;52.034;20.656;2023-06-26T17:31:10;6.32;;;3.47;;
77298;SDS011;66361;52.034;20.656;2023-06-26T17:35:15;6.28;;;3.90;;
77298;SDS011;66361;52.034;20.656;2023-06-26T17:39:17;4.80;;;3.55;;
77298;SDS011;66361;52.034;20.656;2023-06-26T17:43:21;4.18;;;3.30;;
77298;SDS011;66361;52.034;20.656;2023-06-26T17:47:25;7.97;;;4.28;;
77298;SDS011;66361;52.034;20.656;2023-06-26T17:51:30;5.82;;;4.07;;
77298;SDS011;66361;52.034;20.656;2023-06-26T17:55:34;4.65;;;3.92;;
77298;SDS011;66361;52.034;20.656;2023-06-26T17:59:36;5.75;;;3.67;;
77298;SDS011;66361;52.034;20.656;2023-06-26T18:03:40;3.50;;;3.08;;
77298;SDS011;66361;52.034;20.656;2023-06-26T18:07:44;4.85;;;3.40;;
77298;SDS011;66361;52.034;20.656;2023-06-26T18:12:04;12.15;;;4.30;;
77298;SDS011;66361;52.034;20.656;2023-06-26T18:16:09;7.78;;;3.90;;
77298;SDS011;66361;52.034;20.656;2023-06-26T18:20:12;6.88;;;4.30;;
77298;SDS011;66361;52.034;20.656;2023-06-26T18:24:16;7.32;;;4.43;;
77298;SDS011;66361;52.034;20.656;2023-06-26T18:28:20;6.57;;;3.47;;
77298;SDS011;66361;52.034;20.656;2023-06-26T18:32:24;5.35;;;3.90;;
77298;SDS011;66361;52.034;20.656;2023-06-26T18:36:27;6.07;;;3.97;;
77298;SDS011;66361;52.034;20.656;2023-06-26T18:40:33;5.85;;;4.22;;
77298;SDS011;66361;52.034;20.656;2023-06-26T18:44:36;4.90;;;3.92;;
77298;SDS011;66361;52.034;20.656;2023-06-26T18:48:39;5.00;;;3.75;;
77298;SDS011;66361;52.034;20.656;2023-06-26T18:52:42;5.30;;;4.20;;
77298;SDS011;66361;52.034;20.656;2023-06-26T18:56:46;5.20;;;3.60;;
77298;SDS011;66361;52.034;20.656;2023-06-26T19:00:49;4.63;;;3.95;;
77298;SDS011;66361;52.034;20.656;2023-06-26T19:04:52;6.35;;;4.18;;
77298;SDS011;66361;52.034;20.656;2023-06-26T19:08:55;6.00;;;3.83;;
77298;SDS011;66361;52.034;20.656;2023-06-26T19:13:00;6.07;;;4.72;;
77298;SDS011;66361;52.034;20.656;2023-06-26T19:17:03;5.65;;;4.22;;
77298;SDS011;66361;52.034;20.656;2023-06-26T19:21:07;6.45;;;4.70;;
77298;SDS011;66361;52.034;20.656;2023-06-26T19:25:10;6.43;;;4.55;;
77298;SDS011;66361;52.034;20.656;2023-06-26T19:29:16;5.32;;;4.38;;
77298;SDS011;66361;52.034;20.656;2023-06-26T19:33:19;9.02;;;4.53;;
77298;SDS011;66361;52.034;20.656;2023-06-26T19:37:22;6.30;;;5.15;;
77298;SDS011;66361;52.034;20.656;2023-06-26T19:41:25;6.47;;;4.70;;
77298;SDS011;66361;52.034;20.656;2023-06-26T19:45:30;7.15;;;5.28;;
77298;SDS011;66361;52.034;20.656;2023-06-26T19:49:33;8.07;;;5.30;;
77298;SDS011;66361;52.034;20.656;2023-06-26T19:53:37;8.02;;;5.55;;
77298;SDS011;66361;52.034;20.656;2023-06-26T19:57:41;7.38;;;5.60;;
77298;SDS011;66361;52.034;20.656;2023-06-26T20:01:46;8.75;;;5.50;;
77298;SDS011;66361;52.034;20.656;2023-06-26T20:05:49;8.80;;;5.80;;
77298;SDS011;66361;52.034;20.656;2023-06-26T20:09:52;8.68;;;5.53;;
77298;SDS011;66361;52.034;20.656;2023-06-26T20:13:55;8.43;;;5.90;;
77298;SDS011;66361;52.034;20.656;2023-06-26T20:17:59;9.80;;;6.47;;
77298;SDS011;66361;52.034;20.656;2023-06-26T20:22:03;9.07;;;6.32;;
77298;SDS011;66361;52.034;20.656;2023-06-26T20:26:06;10.18;;;5.97;;
77298;SDS011;66361;52.034;20.656;2023-06-26T20:30:10;10.30;;;7.47;;
77298;SDS011;66361;52.034;20.656;2023-06-26T20:34:15;10.40;;;6.30;;
77298;SDS011;66361;52.034;20.656;2023-06-26T20:38:18;10.60;;;6.88;;
77298;SDS011;66361;52.034;20.656;2023-06-26T20:42:21;13.00;;;6.70;;
77298;SDS011;66361;52.034;20.656;2023-06-26T20:46:24;11.43;;;7.43;;
77298;SDS011;66361;52.034;20.656;2023-06-26T20:50:34;12.82;;;7.43;;
77298;SDS011;66361;52.034;20.656;2023-06-26T20:54:38;12.85;;;7.15;;
77298;SDS011;66361;52.034;20.656;2023-06-26T20:58:41;14.05;;;7.38;;
77298;SDS011;66361;52.034;20.656;2023-06-26T21:02:44;10.65;;;7.35;;
77298;SDS011;66361;52.034;20.656;2023-06-26T21:06:48;10.15;;;6.15;;
77298;SDS011;66361;52.034;20.656;2023-06-26T21:10:51;12.25;;;7.47;;
77298;SDS011;66361;52.034;20.656;2023-06-26T21:14:54;9.75;;;6.95;;
77298;SDS011;66361;52.034;20.656;2023-06-26T21:18:57;11.05;;;6.90;;
77298;SDS011;66361;52.034;20.656;2023-06-26T21:23:01;10.25;;;6.97;;
77298;SDS011;66361;52.034;20.656;2023-06-26T21:27:05;10.82;;;7.40;;
77298;SDS011;66361;52.034;20.656;2023-06-26T21:31:09;17.27;;;9.68;;
77298;SDS011;66361;52.034;20.656;2023-06-26T21:35:12;16.80;;;10.02;;
77298;SDS011;66361;52.034;20.656;2023-06-26T21:39:17;17.27;;;9.75;;
77298;SDS011;66361;52.034;20.656;2023-06-26T21:43:21;13.05;;;9.10;;
77298;SDS011;66361;52.034;20.656;2023-06-26T21:47:24;15.10;;;8.18;;
77298;SDS011;66361;52.034;20.656;2023-06-26T21:51:27;15.32;;;9.68;;
77298;SDS011;66361;52.034;20.656;2023-06-26T21:55:31;14.88;;;8.10;;
77298;SDS011;66361;52.034;20.656;2023-06-26T21:59:35;16.25;;;9.82;;
77298;SDS011;66361;52.034;20.656;2023-06-26T22:03:38;14.77;;;9.15;;
77298;SDS011;66361;52.034;20.656;2023-06-26T22:07:40;15.45;;;9.50;;
77298;SDS011;66361;52.034;20.656;2023-06-26T22:11:59;12.48;;;8.48;;
77298;SDS011;66361;52.034;20.656;2023-06-26T22:16:02;14.32;;;9.00;;
77298;SDS011;66361;52.034;20.656;2023-06-26T22:20:05;13.55;;;8.38;;
77298;SDS011;66361;52.034;20.656;2023-06-26T22:24:12;12.32;;;8.43;;
77298;SDS011;66361;52.034;20.656;2023-06-26T22:28:18;12.15;;;8.23;;
77298;SDS011;66361;52.034;20.656;2023-06-26T22:32:21;10.63;;;7.45;;
77298;SDS011;66361;52.034;20.656;2023-06-26T22:36:24;11.75;;;7.68;;
77298;SDS011;66361;52.034;20.656;2023-06-26T22:40:28;12.05;;;7.85;;
77298;SDS011;66361;52.034;20.656;2023-06-26T22:44:33;11.88;;;8.20;;
77298;SDS011;66361;52.034;20.656;2023-06-26T22:48:37;11.95;;;7.82;;
77298;SDS011;66361;52.034;20.656;2023-06-26T22:52:40;13.70;;;8.23;;
77298;SDS011;66361;52.034;20.656;2023-06-26T22:56:43;11.88;;;8.15;;
77298;SDS011;66361;52.034;20.656;2023-06-26T23:00:57;11.35;;;8.13;;
77298;SDS011;66361;52.034;20.656;2023-06-26T23:05:02;11.40;;;7.95;;
77298;SDS011;66361;52.034;20.656;2023-06-26T23:09:07;10.55;;;8.13;;
77298;SDS011;66361;52.034;20.656;2023-06-26T23:13:11;14.02;;;8.18;;
77298;SDS011;66361;52.034;20.656;2023-06-26T23:17:16;10.80;;;7.63;;
77298;SDS011;66361;52.034;20.656;2023-06-26T23:21:19;10.40;;;7.90;;
77298;SDS011;66361;52.034;20.656;2023-06-26T23:25:22;11.18;;;7.68;;
77298;SDS011;66361;52.034;20.656;2023-06-26T23:29:38;13.48;;;8.25;;
77298;SDS011;66361;52.034;20.656;2023-06-26T23:33:45;12.02;;;8.57;;
77298;SDS011;66361;52.034;20.656;2023-06-26T23:37:48;12.32;;;8.15;;
77298;SDS011;66361;52.034;20.656;2023-06-26T23:41:55;13.35;;;9.23;;
77298;SDS011;66361;52.034;20.656;2023-06-26T23:45:58;16.85;;;8.63;;
77298;SDS011;66361;52.034;20.656;2023-06-26T23:50:05;10.38;;;7.60;;
77298;SDS011;66361;52.034;20.656;2023-06-26T23:54:11;11.77;;;8.57;;
77298;SDS011;66361;52.034;20.656;2023-06-26T23:58:17;10.48;;;7.72;;
